createdAt,value
2024-02-08T00:00:46.889Z,99353.25
2024-02-08T00:03:51.263Z,99349.44
2024-02-08T00:06:53.729Z,99317.59
2024-02-08T00:09:58.929Z,99336.28
2024-02-08T00:13:01.378Z,99330.50
2024-02-08T00:16:04.081Z,99334.09
2024-02-08T00:19:06.675Z,99343.59
2024-02-08T00:22:09.806Z,99324.69
2024-02-08T00:25:12.176Z,99330.56
2024-02-08T00:28:14.904Z,99358.50
2024-02-08T00:31:17.267Z,99330.22
2024-02-08T00:34:19.856Z,99343.47
2024-02-08T00:37:22.446Z,99323.69
2024-02-08T00:40:25.578Z,99356.63
2024-02-08T00:43:28.169Z,99344.66
2024-02-08T00:46:30.643Z,99321.34
2024-02-08T00:49:33.044Z,99367.22
2024-02-08T00:52:35.533Z,99350.00
2024-02-08T00:55:38.057Z,99328.34
2024-02-08T00:58:40.641Z,99328.34
2024-02-08T01:01:43.167Z,99312.47
2024-02-08T01:04:50.568Z,99323.31
2024-02-08T01:07:53.150Z,99342.72
2024-02-08T01:10:55.754Z,99359.91
2024-02-08T01:13:58.910Z,99323.81
2024-02-08T01:17:01.452Z,99345.94
2024-02-08T01:20:08.018Z,99349.78
2024-02-08T01:23:11.195Z,99343.16
2024-02-08T01:26:13.914Z,99334.94
2024-02-08T01:29:16.928Z,99338.09
2024-02-08T01:32:21.425Z,99320.63
2024-02-08T01:35:24.706Z,99321.00
2024-02-08T01:38:28.790Z,99308.66
2024-02-08T01:41:31.257Z,99291.19
2024-02-08T01:44:33.683Z,99295.47
2024-02-08T01:47:36.185Z,99311.78
2024-02-08T01:50:42.022Z,99331.94
2024-02-08T01:53:45.379Z,99278.31
2024-02-08T01:56:51.895Z,99300.13
2024-02-08T01:59:54.921Z,99300.88
2024-02-08T02:03:02.185Z,99327.69
2024-02-08T02:06:09.667Z,99289.63
2024-02-08T02:09:13.103Z,99292.72
2024-02-08T02:12:18.004Z,99319.50
2024-02-08T02:15:20.655Z,99309.38
2024-02-08T02:18:23.182Z,99277.97
2024-02-08T02:21:26.138Z,99308.63
2024-02-08T02:24:28.653Z,99260.09
2024-02-08T02:27:31.197Z,99300.03
2024-02-08T02:30:35.985Z,99297.31
2024-02-08T02:33:38.527Z,99293.47
2024-02-08T02:36:46.104Z,99292.66
2024-02-08T02:39:48.575Z,99262.78
2024-02-08T02:42:55.414Z,99291.47
2024-02-08T02:45:57.834Z,99291.09
2024-02-08T02:49:00.327Z,99289.97
2024-02-08T02:52:02.988Z,99286.13
2024-02-08T02:55:05.757Z,99301.69
2024-02-08T02:58:08.117Z,99266.81
2024-02-08T03:01:10.570Z,99308.78
2024-02-08T03:04:13.040Z,99283.91
2024-02-08T03:07:15.648Z,99321.91
2024-02-08T03:10:21.962Z,99323.44
2024-02-08T03:13:24.457Z,99287.69
2024-02-08T03:16:29.589Z,99289.22
2024-02-08T03:19:37.093Z,99307.84
2024-02-08T03:22:40.163Z,99329.47
2024-02-08T03:25:42.724Z,99321.22
2024-02-08T03:28:45.610Z,99293.97
2024-02-08T03:31:48.152Z,99337.66
2024-02-08T03:34:53.942Z,99310.28
2024-02-08T03:37:56.918Z,99313.94
2024-02-08T03:40:59.570Z,99327.69
2024-02-08T03:44:03.963Z,99318.25
2024-02-08T03:47:10.662Z,99338.19
2024-02-08T03:50:13.643Z,99308.44
2024-02-08T03:53:19.209Z,99330.03
2024-02-08T03:56:33.036Z,99325.97
2024-02-08T03:59:39.016Z,99307.84
2024-02-08T04:02:45.075Z,99317.19
2024-02-08T04:05:47.448Z,99318.97
2024-02-08T04:09:10.797Z,99305.31
2024-02-08T04:12:32.022Z,99334.03
2024-02-08T04:15:52.874Z,99335.22
2024-02-08T04:19:13.933Z,99306.72
2024-02-08T04:22:34.999Z,99319.94
2024-02-08T04:25:56.057Z,99334.31
2024-02-08T04:29:17.023Z,99298.25
2024-02-08T04:32:38.256Z,99301.50
2024-02-08T04:35:59.328Z,99301.31
2024-02-08T04:42:41.029Z,99285.00
2024-02-08T04:46:02.059Z,99296.34
2024-02-08T04:49:22.977Z,99330.53
2024-02-08T04:52:43.879Z,99344.00
2024-02-08T04:55:47.263Z,99309.53
2024-02-08T04:59:11.032Z,99345.84
2024-02-08T05:02:15.535Z,99342.47
2024-02-08T05:05:20.701Z,99339.88
2024-02-08T05:08:23.359Z,99315.38
2024-02-08T05:11:25.786Z,99326.50
2024-02-08T05:14:28.393Z,99356.88
2024-02-08T05:17:31.311Z,99350.63
2024-02-08T05:20:37.333Z,99295.41
2024-02-08T05:23:40.237Z,99326.31
2024-02-08T05:26:42.751Z,99354.94
2024-02-08T05:29:47.927Z,99349.81
2024-02-08T05:32:50.470Z,99340.47
2024-02-08T05:35:57.959Z,99341.00
2024-02-08T05:39:00.429Z,99339.56
2024-02-08T05:42:03.751Z,99317.91
2024-02-08T05:45:21.880Z,99355.38
2024-02-08T05:48:28.899Z,99355.81
2024-02-08T05:51:32.914Z,99331.81
2024-02-08T05:54:38.624Z,99341.53
2024-02-08T05:57:45.802Z,99368.75
2024-02-08T06:00:54.615Z,99373.13
2024-02-08T06:04:01.508Z,99355.78
2024-02-08T06:07:07.244Z,99375.97
2024-02-08T06:10:16.669Z,99369.09
2024-02-08T06:13:23.878Z,99367.03
2024-02-08T06:16:50.578Z,99342.13
2024-02-08T06:19:53.382Z,99375.81
2024-02-08T06:22:56.610Z,99352.94
2024-02-08T06:26:12.159Z,99382.28
2024-02-08T06:29:21.819Z,99358.03
2024-02-08T06:32:38.193Z,99389.75
2024-02-08T06:35:46.367Z,99379.50
2024-02-08T06:38:54.902Z,99377.78
2024-02-08T06:42:09.107Z,99384.47
2024-02-08T06:45:46.091Z,99381.63
2024-02-08T06:49:11.613Z,99389.16
2024-02-08T06:52:33.215Z,99398.72
2024-02-08T06:55:54.132Z,99396.44
2024-02-08T06:59:15.356Z,99405.72
2024-02-08T07:02:37.720Z,99412.25
2024-02-08T07:06:01.158Z,99411.13
2024-02-08T07:09:22.298Z,99365.16
2024-02-08T07:12:50.088Z,99425.00
2024-02-08T07:16:11.086Z,99416.25
2024-02-08T07:19:32.047Z,99413.75
2024-02-08T07:22:53.362Z,99419.34
2024-02-08T07:26:14.190Z,99432.78
2024-02-08T07:29:35.241Z,99409.66
2024-02-08T07:32:56.336Z,99434.00
2024-02-08T07:36:19.306Z,99425.84
2024-02-08T07:39:31.612Z,99437.28
2024-02-08T07:42:36.450Z,99417.84
2024-02-08T07:45:39.113Z,99419.06
2024-02-08T07:48:45.206Z,99424.13
2024-02-08T07:51:52.776Z,99405.38
2024-02-08T07:55:15.789Z,99415.28
2024-02-08T07:58:20.175Z,99411.97
2024-02-08T08:01:22.918Z,99422.78
2024-02-08T08:04:53.097Z,99446.50
2024-02-08T08:08:01.322Z,99431.53
2024-02-08T08:11:06.868Z,99409.00
2024-02-08T08:14:10.980Z,99408.31
2024-02-08T08:17:16.758Z,99436.66
2024-02-08T08:20:37.940Z,99430.56
2024-02-08T08:24:00.433Z,99423.16
2024-02-08T08:27:08.233Z,99430.63
2024-02-08T08:30:12.837Z,99417.22
2024-02-08T08:33:35.353Z,99430.13
2024-02-08T08:36:43.335Z,99406.97
2024-02-08T08:40:02.168Z,99403.03
2024-02-08T08:43:11.664Z,99430.88
2024-02-08T08:46:14.567Z,99411.69
2024-02-08T08:49:22.528Z,99416.81
2024-02-08T08:52:25.702Z,99389.22
2024-02-08T08:55:28.579Z,99416.03
2024-02-08T08:58:51.412Z,99426.44
2024-02-08T09:01:56.829Z,99418.44
2024-02-08T09:05:10.971Z,99407.88
2024-02-08T09:08:23.490Z,99440.19
2024-02-08T09:11:27.214Z,99437.00
2024-02-08T09:14:33.804Z,99418.69
2024-02-08T09:17:53.298Z,99427.63
2024-02-08T09:20:58.227Z,99390.13
2024-02-08T09:24:07.936Z,99427.28
2024-02-08T09:27:21.008Z,99430.19
2024-02-08T09:30:39.893Z,99413.72
2024-02-08T09:33:47.257Z,99426.13
2024-02-08T09:36:50.429Z,99397.81
2024-02-08T09:40:00.627Z,99439.56
2024-02-08T09:43:18.534Z,99432.09
2024-02-08T09:46:35.447Z,99419.13
2024-02-08T09:49:40.143Z,99415.59
2024-02-08T09:53:01.486Z,99399.63
2024-02-08T09:56:27.072Z,99434.81
2024-02-08T10:00:05.591Z,99432.28
2024-02-08T10:03:33.278Z,99427.63
2024-02-08T10:06:43.257Z,99440.53
2024-02-08T10:09:49.160Z,99430.72
2024-02-08T10:13:07.331Z,99398.34
2024-02-08T10:16:14.374Z,99385.28
2024-02-08T10:19:48.843Z,99395.31
2024-02-08T10:23:10.059Z,99392.06
2024-02-08T10:26:22.655Z,99383.56
2024-02-08T10:29:26.505Z,99370.41
2024-02-08T10:32:30.636Z,99377.72
2024-02-08T10:35:40.698Z,99362.69
2024-02-08T10:38:59.472Z,99389.41
2024-02-08T10:42:04.834Z,99368.28
2024-02-08T10:45:07.781Z,99360.78
2024-02-08T10:48:15.259Z,99380.47
2024-02-08T10:51:27.472Z,99378.31
2024-02-08T10:54:44.274Z,99359.59
2024-02-08T10:58:23.642Z,99368.53
2024-02-08T11:01:39.132Z,99341.97
2024-02-08T11:04:42.915Z,99375.22
2024-02-08T11:07:49.604Z,99362.00
2024-02-08T11:11:00.473Z,99342.28
2024-02-08T11:14:09.665Z,99362.19
2024-02-08T11:17:21.445Z,99364.97
2024-02-08T11:20:46.450Z,99360.00
2024-02-08T11:26:59.648Z,99359.38
2024-02-08T11:30:02.129Z,99341.69
2024-02-08T11:33:05.529Z,99337.75
2024-02-08T11:36:15.951Z,99362.38
2024-02-08T11:39:33.103Z,99346.91
2024-02-08T11:42:38.482Z,99341.19
2024-02-08T11:45:53.694Z,99355.19
2024-02-08T11:49:11.091Z,99335.00
2024-02-08T11:52:23.331Z,99346.41
2024-02-08T11:55:26.089Z,99324.53
2024-02-08T11:58:31.318Z,99350.78
2024-02-08T12:01:34.799Z,99335.94
2024-02-08T12:04:39.546Z,99336.19
2024-02-08T12:07:46.891Z,99334.72
2024-02-08T12:10:51.032Z,99323.91
2024-02-08T12:13:59.194Z,99337.31
2024-02-08T12:17:08.039Z,99309.47
2024-02-08T12:20:11.448Z,99301.81
2024-02-08T12:23:17.901Z,99326.75
2024-02-08T12:26:23.666Z,99325.53
2024-02-08T12:29:27.236Z,99328.78
2024-02-08T12:32:32.228Z,99329.72
2024-02-08T12:35:37.110Z,99327.81
2024-02-08T12:38:39.792Z,99317.00
2024-02-08T12:41:42.186Z,99313.75
2024-02-08T12:44:50.533Z,99334.78
2024-02-08T12:47:53.760Z,99316.50
2024-02-08T12:50:56.769Z,99322.88
2024-02-08T12:54:03.614Z,99323.91
2024-02-08T12:57:14.305Z,99319.19
2024-02-08T13:00:22.919Z,99318.50
2024-02-08T13:03:27.706Z,99313.25
2024-02-08T13:06:30.322Z,99314.28
2024-02-08T13:09:38.675Z,99283.97
2024-02-08T13:12:44.415Z,99297.19
2024-02-08T13:15:46.931Z,99286.81
2024-02-08T13:18:56.385Z,99289.66
2024-02-08T13:21:59.234Z,99294.38
2024-02-08T13:25:01.827Z,99307.06
2024-02-08T13:28:04.542Z,99314.13
2024-02-08T13:31:10.230Z,99280.19
2024-02-08T13:34:15.049Z,99288.34
2024-02-08T13:37:23.516Z,99284.84
2024-02-08T13:40:27.154Z,99276.34
2024-02-08T13:43:31.905Z,99270.59
2024-02-08T13:46:37.893Z,99272.56
2024-02-08T13:49:41.085Z,99267.31
2024-02-08T13:52:43.862Z,99283.72
2024-02-08T13:55:54.329Z,99260.13
2024-02-08T13:59:01.908Z,99241.16
2024-02-08T14:02:05.855Z,99274.38
2024-02-08T14:05:18.314Z,99276.00
2024-02-08T14:08:25.408Z,99275.34
2024-02-08T14:11:28.483Z,99253.44
2024-02-08T14:14:41.839Z,99273.94
2024-02-08T14:17:55.439Z,99242.00
2024-02-08T14:20:59.619Z,99265.88
2024-02-08T14:24:03.549Z,99233.69
2024-02-08T14:27:07.084Z,99247.25
2024-02-08T14:30:10.081Z,99241.50
2024-02-08T14:33:12.898Z,99251.63
2024-02-08T14:36:15.926Z,99252.47
2024-02-08T14:39:29.425Z,99250.06
2024-02-08T14:42:38.514Z,99246.41
2024-02-08T14:45:41.009Z,99240.63
2024-02-08T14:48:43.461Z,99210.13
2024-02-08T14:51:49.753Z,99236.78
2024-02-08T14:55:14.217Z,99238.56
2024-02-08T14:58:37.019Z,99236.03
2024-02-08T15:01:40.170Z,99221.41
2024-02-08T15:04:47.173Z,99205.53
2024-02-08T15:07:52.750Z,99199.50
2024-02-08T15:11:05.446Z,99210.09
2024-02-08T15:14:08.538Z,99213.63
2024-02-08T15:17:20.651Z,99199.28
2024-02-08T15:20:44.988Z,99219.19
2024-02-08T15:24:07.436Z,99184.13
2024-02-08T15:27:19.390Z,99196.22
2024-02-08T15:30:31.356Z,99164.72
2024-02-08T15:33:33.785Z,99207.75
2024-02-08T15:36:49.419Z,99160.59
2024-02-08T15:40:10.947Z,99181.59
2024-02-08T15:43:17.310Z,99173.53
2024-02-08T15:46:21.707Z,99208.75
2024-02-08T15:49:30.298Z,99191.72
2024-02-08T15:52:35.949Z,99172.75
2024-02-08T15:55:41.774Z,99195.59
2024-02-08T15:58:46.557Z,99160.09
2024-02-08T16:01:53.157Z,99160.50
2024-02-08T16:05:13.632Z,99171.72
2024-02-08T16:08:16.534Z,99145.75
2024-02-08T16:11:21.779Z,99145.41
2024-02-08T16:14:27.381Z,99166.72
2024-02-08T16:17:32.916Z,99176.69
2024-02-08T16:20:40.349Z,99183.72
2024-02-08T16:23:48.398Z,99151.59
2024-02-08T16:26:57.374Z,99164.59
2024-02-08T16:30:09.784Z,99138.03
2024-02-08T16:33:20.868Z,99146.91
2024-02-08T16:36:28.248Z,99162.13
2024-02-08T16:39:34.502Z,99136.31
2024-02-08T16:42:37.346Z,99140.63
2024-02-08T16:45:48.846Z,99177.03
2024-02-08T16:48:55.497Z,99139.63
2024-02-08T16:51:58.521Z,99135.75
2024-02-08T16:55:02.351Z,99151.88
2024-02-08T16:58:18.954Z,99170.16
2024-02-08T17:01:31.041Z,99141.50
2024-02-08T17:04:50.358Z,99170.81
2024-02-08T17:07:53.574Z,99155.41
2024-02-08T17:11:02.953Z,99177.00
2024-02-08T17:14:09.719Z,99148.88
2024-02-08T17:17:15.429Z,99185.75
2024-02-08T17:20:38.933Z,99163.16
2024-02-08T17:23:54.937Z,99156.72
2024-02-08T17:27:01.168Z,99164.59
2024-02-08T17:30:18.599Z,99199.09
2024-02-08T17:33:21.511Z,99185.03
2024-02-08T17:36:32.380Z,99194.56
2024-02-08T17:39:43.741Z,99179.19
2024-02-08T17:43:00.270Z,99198.25
2024-02-08T17:46:06.049Z,99178.38
2024-02-08T17:49:17.291Z,99164.75
2024-02-08T17:52:24.841Z,99159.84
2024-02-08T17:55:34.905Z,99178.81
2024-02-08T17:58:37.667Z,99168.25
2024-02-08T18:01:56.582Z,99131.94
2024-02-08T18:05:02.546Z,99150.56
2024-02-08T18:08:10.465Z,99133.25
2024-02-08T18:11:17.523Z,99127.91
2024-02-08T18:14:20.163Z,99115.03
2024-02-08T18:17:26.417Z,99135.72
2024-02-08T18:20:34.377Z,99160.16
2024-02-08T18:23:37.029Z,99126.25
2024-02-08T18:26:41.770Z,99130.97
2024-02-08T18:29:46.361Z,99118.53
2024-02-08T18:32:49.339Z,99129.16
2024-02-08T18:35:54.499Z,99146.50
2024-02-08T18:38:58.654Z,99139.53
2024-02-08T18:42:03.295Z,99144.59
2024-02-08T18:45:08.552Z,99129.00
2024-02-08T18:48:12.831Z,99129.41
2024-02-08T18:51:17.298Z,99129.41
2024-02-08T18:54:30.102Z,99109.09
2024-02-08T18:57:32.689Z,99089.78
2024-02-08T19:00:35.121Z,99091.41
2024-02-08T19:03:38.520Z,99120.94
2024-02-08T19:06:41.049Z,99076.50
2024-02-08T19:09:44.789Z,99088.69
2024-02-08T19:12:53.043Z,99086.28
2024-02-08T19:16:01.782Z,99117.41
2024-02-08T19:19:04.946Z,99093.03
2024-02-08T19:22:14.701Z,99089.66
2024-02-08T19:25:22.887Z,99073.53
2024-02-08T19:28:26.006Z,99067.34
2024-02-08T19:31:29.233Z,99085.19
2024-02-08T19:34:32.107Z,99085.25
2024-02-08T19:37:35.019Z,99071.97
2024-02-08T19:40:37.836Z,99052.94
2024-02-08T19:43:40.752Z,99076.31
2024-02-08T19:46:53.620Z,99024.19
2024-02-08T19:50:07.148Z,99027.50
2024-02-08T19:53:11.123Z,99044.94
2024-02-08T19:56:19.930Z,99068.31
2024-02-08T19:59:28.419Z,99041.63
2024-02-08T20:02:35.745Z,99066.78
2024-02-08T20:05:38.757Z,99054.34
2024-02-08T20:08:46.205Z,99048.16
2024-02-08T20:11:53.339Z,99055.03
2024-02-08T20:14:58.164Z,99064.25
2024-02-08T20:18:02.582Z,99047.59
2024-02-08T20:21:05.483Z,99051.75
2024-02-08T20:24:13.060Z,99033.28
2024-02-08T20:27:16.188Z,99041.22
2024-02-08T20:30:22.740Z,99042.81
2024-02-08T20:33:32.346Z,99066.50
2024-02-08T20:36:34.914Z,99061.84
2024-02-08T20:39:37.388Z,99059.03
2024-02-08T20:42:39.796Z,99096.69
2024-02-08T20:45:42.538Z,99068.56
2024-02-08T20:48:45.069Z,99069.72
2024-02-08T20:51:53.728Z,99108.50
2024-02-08T20:54:56.289Z,99100.28
2024-02-08T20:57:58.817Z,99105.41
2024-02-08T21:01:03.139Z,99100.53
2024-02-08T21:04:09.321Z,99109.81
2024-02-08T21:07:13.465Z,99103.69
2024-02-08T21:10:23.757Z,99098.69
2024-02-08T21:13:26.876Z,99105.66
2024-02-08T21:16:31.164Z,99096.41
2024-02-08T21:19:37.872Z,99086.28
2024-02-08T21:22:41.261Z,99075.75
2024-02-08T21:25:43.828Z,99078.84
2024-02-08T21:28:52.224Z,99095.91
2024-02-08T21:31:56.838Z,99091.59
2024-02-08T21:34:59.471Z,99046.75
2024-02-08T21:38:06.107Z,99062.31
2024-02-08T21:41:08.621Z,99043.66
2024-02-08T21:44:11.599Z,99046.31
2024-02-08T21:47:17.353Z,99045.97
2024-02-08T21:50:20.135Z,99048.28
2024-02-08T21:53:22.515Z,99057.22
2024-02-08T21:56:24.866Z,99051.44
2024-02-08T21:59:29.567Z,99076.19
2024-02-08T22:02:34.202Z,99032.13
2024-02-08T22:05:36.800Z,99036.81
2024-02-08T22:08:39.215Z,99061.19
2024-02-08T22:11:48.967Z,99057.34
2024-02-08T22:14:51.520Z,99070.47
2024-02-08T22:17:53.978Z,99052.75
2024-02-08T22:20:56.433Z,99041.94
2024-02-08T22:23:58.822Z,99046.88
2024-02-08T22:27:02.125Z,99054.06
2024-02-08T22:30:11.279Z,99053.34
2024-02-08T22:33:15.291Z,99032.84
2024-02-08T22:36:17.802Z,99023.84
2024-02-08T22:39:20.252Z,99034.59
2024-02-08T22:42:24.366Z,99028.06
2024-02-08T22:45:26.795Z,99017.19
2024-02-08T22:48:29.152Z,99007.84
2024-02-08T22:51:33.693Z,98987.41
2024-02-08T22:54:36.038Z,98975.34
2024-02-08T22:57:40.124Z,98978.44
2024-02-08T23:00:51.692Z,98992.81
2024-02-08T23:03:54.370Z,98992.47
2024-02-08T23:06:57.003Z,98991.88
2024-02-08T23:10:01.097Z,98995.66
2024-02-08T23:13:04.565Z,98996.84
2024-02-08T23:16:09.378Z,98985.22
2024-02-08T23:19:13.549Z,98970.03
2024-02-08T23:22:15.988Z,98975.09
2024-02-08T23:25:18.488Z,98972.38
2024-02-08T23:28:21.645Z,98997.50
2024-02-08T23:31:29.165Z,99004.03
2024-02-08T23:34:31.806Z,98966.19
2024-02-08T23:37:34.348Z,98977.78
2024-02-08T23:40:36.883Z,98985.09
2024-02-08T23:43:39.526Z,98979.09
2024-02-08T23:46:43.380Z,98971.28
2024-02-08T23:49:45.894Z,98967.44
2024-02-08T23:52:51.253Z,99006.56
2024-02-08T23:55:56.120Z,98969.47
2024-02-08T23:58:59.180Z,98974.94
